createdAt,value
2023-04-16T00:30:35.644Z,1.35
2023-04-16T00:34:38.902Z,1.40
2023-04-16T00:38:42.151Z,1.27
2023-04-16T00:42:45.195Z,1.50
2023-04-16T00:46:50.219Z,1.30
2023-04-16T00:50:55.209Z,1.60
2023-04-16T00:54:58.356Z,1.50
2023-04-16T00:59:01.570Z,1.67
2023-04-16T01:03:06.680Z,1.70
2023-04-16T01:07:10.185Z,1.52
2023-04-16T01:11:13.427Z,1.63
2023-04-16T01:15:16.530Z,2.08
2023-04-16T01:19:21.020Z,1.80
2023-04-16T01:23:25.851Z,2.00
2023-04-16T01:27:29.034Z,1.80
2023-04-16T01:31:32.219Z,2.25
2023-04-16T01:35:35.269Z,1.90
2023-04-16T01:39:39.891Z,2.30
2023-04-16T01:43:42.989Z,1.90
2023-04-16T01:47:46.056Z,1.90
2023-04-16T01:51:49.593Z,1.90
2023-04-16T01:55:54.076Z,2.05
2023-04-16T01:59:57.085Z,1.88
2023-04-16T02:04:00.223Z,1.98
2023-04-16T02:08:03.583Z,1.88
2023-04-16T02:12:09.877Z,2.13
2023-04-16T02:16:12.948Z,2.15
2023-04-16T02:20:16.393Z,2.38
2023-04-16T02:24:19.423Z,2.35
2023-04-16T02:28:23.954Z,2.10
2023-04-16T02:32:27.214Z,2.25
2023-04-16T02:36:31.733Z,2.85
2023-04-16T02:40:34.908Z,2.60
2023-04-16T02:44:39.513Z,2.33
2023-04-16T02:48:42.570Z,2.20
2023-04-16T02:52:45.948Z,2.05
2023-04-16T02:56:49.028Z,2.20
2023-04-16T03:00:54.328Z,2.42
2023-04-16T03:04:57.630Z,2.50
2023-04-16T03:09:00.697Z,2.83
2023-04-16T03:13:04.279Z,2.53
2023-04-16T03:17:08.976Z,2.78
2023-04-16T03:21:12.058Z,2.55
2023-04-16T03:25:15.348Z,3.28
2023-04-16T03:29:18.489Z,3.17
2023-04-16T03:33:22.990Z,2.78
2023-04-16T03:37:26.407Z,2.60
2023-04-16T03:41:29.540Z,2.70
2023-04-16T03:45:32.742Z,2.60
2023-04-16T03:49:37.119Z,3.10
2023-04-16T03:53:40.258Z,3.00
2023-04-16T03:57:43.364Z,3.10
2023-04-16T04:01:46.794Z,3.13
2023-04-16T04:05:51.350Z,3.20
2023-04-16T04:09:54.749Z,3.63
2023-04-16T04:13:57.799Z,3.53
2023-04-16T04:18:01.011Z,4.20
2023-04-16T04:22:05.911Z,4.07
2023-04-16T04:26:08.874Z,4.82
2023-04-16T04:30:13.153Z,4.43
2023-04-16T04:34:16.212Z,4.70
2023-04-16T04:38:22.173Z,4.47
2023-04-16T04:42:26.016Z,5.22
2023-04-16T04:50:32.068Z,5.30
2023-04-16T04:54:36.619Z,5.03
2023-04-16T04:58:39.437Z,4.70
2023-04-16T05:02:42.694Z,4.95
2023-04-16T05:06:45.729Z,4.50
2023-04-16T05:10:50.136Z,4.40
2023-04-16T05:14:53.076Z,4.70
2023-04-16T05:18:56.187Z,3.90
2023-04-16T05:22:59.144Z,3.63
2023-04-16T05:27:03.579Z,3.67
2023-04-16T05:31:06.933Z,4.03
2023-04-16T05:35:11.094Z,4.30
2023-04-16T05:39:14.146Z,4.15
2023-04-16T05:43:18.890Z,4.25
2023-04-16T05:47:21.941Z,4.20
2023-04-16T05:51:26.332Z,4.65
2023-04-16T05:55:29.098Z,4.82
2023-04-16T05:59:34.818Z,4.53
2023-04-16T06:03:37.827Z,4.10
2023-04-16T06:07:40.827Z,5.15
2023-04-16T06:11:43.890Z,4.63
2023-04-16T06:15:48.544Z,5.13
2023-04-16T06:19:51.593Z,5.03
2023-04-16T06:23:56.179Z,4.32
2023-04-16T06:27:59.116Z,14.35
2023-04-16T06:32:03.950Z,4.15
2023-04-16T06:36:06.885Z,4.55
2023-04-16T06:40:10.946Z,4.32
2023-04-16T06:44:14.665Z,4.90
2023-04-16T06:48:19.276Z,3.97
2023-04-16T06:52:22.411Z,3.58
2023-04-16T06:56:25.115Z,2.78
2023-04-16T07:00:28.452Z,4.05
2023-04-16T07:04:32.794Z,3.90
2023-04-16T07:08:35.881Z,3.50
2023-04-16T07:12:38.978Z,3.53
2023-04-16T07:16:42.307Z,3.70
2023-04-16T07:20:46.901Z,3.67
2023-04-16T07:24:49.894Z,4.10
2023-04-16T07:28:53.045Z,4.05
2023-04-16T07:32:56.063Z,3.92
2023-04-16T07:37:00.920Z,3.80
2023-04-16T07:41:04.221Z,4.90
2023-04-16T07:45:08.521Z,4.63
2023-04-16T07:49:11.840Z,4.72
2023-04-16T07:53:16.324Z,4.55
2023-04-16T07:57:19.305Z,4.05
2023-04-16T08:01:22.859Z,4.32
2023-04-16T08:05:25.821Z,4.65
2023-04-16T08:09:30.332Z,3.75
2023-04-16T08:13:33.762Z,4.10
2023-04-16T08:17:37.958Z,3.88
2023-04-16T08:21:41.216Z,3.60
2023-04-16T08:25:45.595Z,4.20
2023-04-16T08:29:48.692Z,3.75
2023-04-16T08:33:51.643Z,3.42
2023-04-16T08:37:54.707Z,3.53
2023-04-16T08:41:59.656Z,3.95
2023-04-16T08:46:03.239Z,4.25
2023-04-16T08:54:11.170Z,4.43
2023-04-16T08:58:16.529Z,3.70
2023-04-16T09:02:19.684Z,3.70
2023-04-16T09:06:23.094Z,3.83
2023-04-16T09:10:26.700Z,3.92
2023-04-16T09:18:33.850Z,3.70
2023-04-16T09:22:36.856Z,4.00
2023-04-16T09:26:40.049Z,3.95
2023-04-16T09:30:48.138Z,4.00
2023-04-16T09:34:59.347Z,3.90
2023-04-16T09:39:02.615Z,3.72
2023-04-16T09:43:12.509Z,4.18
2023-04-16T09:47:18.397Z,4.03
2023-04-16T09:51:21.533Z,4.00
2023-04-16T09:55:27.982Z,4.03
2023-04-16T09:59:34.395Z,3.83
2023-04-16T10:03:40.035Z,3.97
2023-04-16T10:07:43.523Z,3.40
2023-04-16T10:11:46.652Z,3.35
2023-04-16T10:15:50.002Z,3.80
2023-04-16T10:19:55.976Z,3.63
2023-04-16T10:23:59.061Z,3.90
2023-04-16T10:28:01.946Z,3.65
2023-04-16T10:32:05.393Z,3.60
2023-04-16T10:40:24.584Z,3.30
2023-04-16T10:44:27.968Z,5.53
2023-04-16T10:48:38.724Z,3.38
2023-04-16T10:53:20.756Z,3.60
2023-04-16T10:57:23.797Z,3.50
2023-04-16T11:01:34.947Z,3.80
2023-04-16T11:05:48.054Z,9.35
2023-04-16T11:09:58.074Z,9.35
2023-04-16T11:14:01.260Z,3.38
2023-04-16T11:18:06.894Z,3.60
2023-04-16T11:22:11.680Z,3.78
2023-04-16T11:26:26.283Z,3.53
2023-04-16T11:30:30.931Z,3.80
2023-04-16T11:34:34.016Z,5.35
2023-04-16T11:38:38.100Z,4.00
2023-04-16T11:42:43.523Z,3.83
2023-04-16T11:46:46.485Z,3.90
2023-04-16T11:50:57.038Z,3.88
2023-04-16T11:55:00.919Z,4.32
2023-04-16T11:59:13.241Z,4.15
2023-04-16T12:03:16.883Z,3.90
2023-04-16T12:07:19.912Z,3.58
2023-04-16T12:11:23.292Z,3.83
2023-04-16T12:15:45.023Z,3.80
2023-04-16T12:19:53.025Z,3.65
2023-04-16T12:23:55.725Z,4.30
2023-04-16T12:27:59.045Z,3.80
2023-04-16T12:32:03.213Z,4.22
2023-04-16T12:36:18.844Z,4.10
2023-04-16T12:40:21.749Z,3.95
2023-04-16T12:44:25.200Z,3.83
2023-04-16T12:48:30.272Z,3.60
2023-04-16T12:52:33.474Z,4.00
2023-04-16T12:56:39.267Z,3.95
2023-04-16T13:00:42.396Z,4.03
2023-04-16T13:04:46.861Z,3.55
2023-04-16T13:08:49.650Z,3.58
2023-04-16T13:12:52.847Z,3.78
2023-04-16T13:21:00.436Z,3.70
2023-04-16T13:25:03.324Z,3.80
2023-04-16T13:29:06.496Z,3.78
2023-04-16T13:37:15.395Z,4.28
2023-04-16T13:41:18.325Z,4.25
2023-04-16T13:45:21.892Z,4.47
2023-04-16T13:49:25.457Z,4.78
2023-04-16T13:53:32.973Z,4.70
2023-04-16T13:57:36.673Z,4.72
2023-04-16T14:01:40.080Z,5.20
2023-04-16T14:05:43.420Z,5.57
2023-04-16T14:13:51.483Z,4.90
2023-04-16T14:17:55.071Z,5.43
2023-04-16T14:21:58.117Z,5.93
2023-04-16T14:26:02.812Z,5.05
2023-04-16T14:30:07.073Z,5.82
2023-04-16T14:34:09.919Z,5.32
2023-04-16T14:38:12.951Z,5.80
2023-04-16T14:42:17.434Z,5.30
2023-04-16T14:46:20.161Z,5.38
2023-04-16T14:50:23.508Z,4.95
2023-04-16T14:54:26.606Z,5.40
2023-04-16T14:58:31.795Z,5.35
2023-04-16T15:02:35.493Z,5.70
2023-04-16T15:06:38.468Z,5.10
2023-04-16T15:10:43.516Z,5.75
2023-04-16T15:14:48.011Z,6.22
2023-04-16T15:18:51.597Z,5.97
2023-04-16T15:22:54.389Z,6.10
2023-04-16T15:26:58.063Z,6.65
2023-04-16T15:31:02.532Z,6.93
2023-04-16T15:35:06.271Z,7.10
2023-04-16T15:39:09.736Z,7.30
2023-04-16T15:43:12.878Z,7.97
2023-04-16T15:47:17.170Z,8.05
2023-04-16T15:51:20.528Z,7.63
2023-04-16T15:59:26.532Z,7.40
2023-04-16T16:03:33.030Z,7.68
2023-04-16T16:07:37.605Z,8.20
2023-04-16T16:11:41.462Z,8.38
2023-04-16T16:15:44.322Z,8.70
2023-04-16T16:19:49.335Z,8.38
2023-04-16T16:23:52.627Z,8.52
2023-04-16T16:27:55.562Z,8.80
2023-04-16T16:31:58.551Z,8.60
2023-04-16T16:36:02.984Z,8.55
2023-04-16T16:40:07.804Z,9.05
2023-04-16T16:44:10.598Z,9.50
2023-04-16T16:48:13.562Z,8.45
2023-04-16T16:52:18.132Z,8.75
2023-04-16T16:56:21.129Z,8.65
2023-04-16T17:00:24.372Z,8.88
2023-04-16T17:04:27.232Z,9.32
2023-04-16T17:08:31.777Z,8.52
2023-04-16T17:12:34.576Z,8.43
2023-04-16T17:16:37.539Z,9.07
2023-04-16T17:20:40.573Z,8.00
2023-04-16T17:24:45.169Z,8.05
2023-04-16T17:28:48.089Z,8.05
2023-04-16T17:32:50.992Z,8.13
2023-04-16T17:36:54.120Z,8.60
2023-04-16T17:40:58.877Z,8.05
2023-04-16T17:45:02.112Z,7.97
2023-04-16T17:49:05.199Z,7.28
2023-04-16T17:53:08.010Z,8.73
2023-04-16T17:57:12.508Z,8.98
2023-04-16T18:01:15.638Z,8.63
2023-04-16T18:05:19.108Z,8.20
2023-04-16T18:09:22.006Z,9.10
2023-04-16T18:13:26.642Z,8.43
2023-04-16T18:17:29.408Z,9.10
2023-04-16T18:21:32.276Z,8.70
2023-04-16T18:25:35.454Z,8.85
2023-04-16T18:29:40.740Z,9.27
2023-04-16T18:33:56.773Z,9.23
2023-04-16T18:38:01.679Z,9.00
2023-04-16T18:42:05.264Z,8.93
2023-04-16T18:46:09.477Z,9.52
2023-04-16T18:50:12.423Z,9.20
2023-04-16T18:54:15.856Z,9.25
2023-04-16T18:58:18.998Z,8.55
2023-04-16T19:02:24.186Z,9.23
2023-04-16T19:06:27.907Z,9.32
2023-04-16T19:10:31.076Z,8.10
2023-04-16T19:14:34.266Z,9.63
2023-04-16T19:18:38.638Z,9.52
2023-04-16T19:22:41.671Z,9.15
2023-04-16T19:26:44.448Z,9.13
2023-04-16T19:30:47.320Z,8.60
2023-04-16T19:34:51.405Z,8.32
2023-04-16T19:38:54.310Z,9.93
2023-04-16T19:42:57.239Z,9.70
2023-04-16T19:46:59.985Z,9.07
2023-04-16T19:51:05.588Z,8.20
2023-04-16T19:55:09.499Z,8.93
2023-04-16T19:59:12.309Z,8.90
2023-04-16T20:03:15.099Z,10.60
2023-04-16T20:07:19.282Z,9.05
2023-04-16T20:11:21.871Z,8.35
2023-04-16T20:15:24.526Z,10.02
2023-04-16T20:19:33.666Z,11.52
2023-04-16T20:23:37.927Z,10.85
2023-04-16T20:27:40.628Z,12.70
2023-04-16T20:31:44.407Z,14.40
2023-04-16T20:35:47.804Z,15.05
2023-04-16T20:39:54.109Z,16.20
2023-04-16T20:43:56.922Z,16.45
2023-04-16T20:48:00.380Z,17.95
2023-04-16T20:52:03.575Z,17.10
2023-04-16T20:56:09.208Z,18.05
2023-04-16T21:00:12.855Z,18.13
2023-04-16T21:04:15.971Z,17.60
2023-04-16T21:08:19.169Z,18.00
2023-04-16T21:12:23.253Z,19.15
2023-04-16T21:16:25.972Z,17.73
2023-04-16T21:20:30.481Z,16.92
2023-04-16T21:24:33.529Z,17.10
2023-04-16T21:28:37.607Z,16.88
2023-04-16T21:32:40.264Z,16.35
2023-04-16T21:36:42.907Z,16.52
2023-04-16T21:40:46.681Z,17.33
2023-04-16T21:48:53.807Z,17.33
2023-04-16T21:52:56.610Z,15.25
2023-04-16T21:56:59.399Z,15.25
2023-04-16T22:01:03.747Z,20.90
2023-04-16T22:05:07.430Z,21.05
2023-04-16T22:09:10.352Z,16.60
2023-04-16T22:13:13.988Z,15.77
2023-04-16T22:17:18.208Z,15.93
2023-04-16T22:21:21.043Z,15.38
2023-04-16T22:25:24.165Z,16.45
2023-04-16T22:29:27.052Z,15.55
2023-04-16T22:33:31.585Z,15.90
2023-04-16T22:37:34.767Z,18.63
2023-04-16T22:41:37.514Z,17.83
2023-04-16T22:45:41.405Z,19.52
2023-04-16T22:49:45.772Z,23.17
2023-04-16T22:53:48.446Z,21.10
2023-04-16T22:57:51.142Z,24.13
2023-04-16T23:01:54.227Z,19.23
2023-04-16T23:05:58.666Z,18.67
2023-04-16T23:10:01.440Z,20.17
2023-04-16T23:14:05.036Z,19.02
2023-04-16T23:18:07.875Z,18.27
2023-04-16T23:22:12.246Z,18.98
2023-04-16T23:26:14.937Z,19.30
2023-04-16T23:30:18.101Z,17.50
2023-04-16T23:34:20.927Z,17.52
2023-04-16T23:38:25.193Z,20.27
2023-04-16T23:42:28.049Z,16.73
2023-04-16T23:46:31.170Z,15.07
2023-04-16T23:50:34.046Z,17.52
2023-04-16T23:54:38.459Z,17.67
2023-04-16T23:58:41.162Z,18.67
